createdAt,value
2023-01-29T00:04:14.062Z,-1.58
2023-01-29T00:09:16.325Z,-1.54
2023-01-29T00:14:18.576Z,-1.51
2023-01-29T00:19:22.041Z,-1.48
2023-01-29T00:24:24.680Z,-1.43
2023-01-29T00:29:26.761Z,-1.41
2023-01-29T00:34:29.963Z,-1.41
2023-01-29T00:39:46.820Z,-1.39
2023-01-29T00:44:50.528Z,-1.35
2023-01-29T00:49:54.449Z,-1.37
2023-01-29T00:54:58.466Z,-1.37
2023-01-29T01:00:01.373Z,-1.28
2023-01-29T01:05:05.589Z,-1.23
2023-01-29T01:16:14.988Z,-1.17
2023-01-29T01:21:18.593Z,-1.17
2023-01-29T01:26:20.974Z,-1.15
2023-01-29T01:31:23.261Z,-1.16
2023-01-29T01:36:26.699Z,-1.09
2023-01-29T01:41:30.146Z,-1.12
2023-01-29T01:46:33.836Z,-1.12
2023-01-29T01:51:43.392Z,-1.09
2023-01-29T01:56:51.032Z,-1.05
2023-01-29T02:01:54.637Z,-1.08
2023-01-29T02:07:01.460Z,-1.05
2023-01-29T02:12:05.827Z,-1.04
2023-01-29T02:17:11.564Z,-1.07
2023-01-29T02:22:45.479Z,-1.07
2023-01-29T02:28:13.605Z,-1.03
2023-01-29T02:33:26.251Z,-1.03
2023-01-29T02:38:35.017Z,-1.04
2023-01-29T02:43:46.415Z,-1.01
2023-01-29T02:48:58.272Z,-0.92
2023-01-29T02:54:05.278Z,-0.95
2023-01-29T03:05:01.626Z,-1.00
2023-01-29T03:10:09.870Z,-1.01
2023-01-29T03:15:18.344Z,-0.97
2023-01-29T03:20:25.002Z,-0.99
2023-01-29T03:25:28.569Z,-0.99
2023-01-29T03:30:35.588Z,-1.00
2023-01-29T03:35:44.854Z,-0.98
2023-01-29T03:40:51.288Z,-0.96
2023-01-29T03:46:03.770Z,-0.96
2023-01-29T03:51:16.877Z,-0.94
2023-01-29T03:56:29.366Z,-0.92
2023-01-29T04:01:40.993Z,-0.82
2023-01-29T04:06:46.779Z,-0.81
2023-01-29T04:11:55.433Z,-0.78
2023-01-29T04:17:03.241Z,-0.75
2023-01-29T04:22:10.598Z,-0.71
2023-01-29T04:27:26.202Z,-0.68
2023-01-29T04:32:37.998Z,-0.61
2023-01-29T04:37:45.321Z,-0.59
2023-01-29T04:42:55.242Z,-0.58
2023-01-29T04:48:07.581Z,-0.56
2023-01-29T04:53:15.674Z,-0.56
2023-01-29T04:58:26.796Z,-0.46
2023-01-29T05:03:33.637Z,-0.45
2023-01-29T05:08:39.049Z,-0.43
2023-01-29T05:13:42.737Z,-0.44
2023-01-29T05:18:46.743Z,-0.38
2023-01-29T05:24:07.142Z,-0.38
2023-01-29T05:29:08.892Z,-0.35
2023-01-29T05:34:12.432Z,-0.30
2023-01-29T05:39:14.175Z,-0.29
2023-01-29T05:44:16.706Z,-0.31
2023-01-29T05:49:20.342Z,-0.33
2023-01-29T05:54:22.476Z,-0.34
2023-01-29T05:59:24.876Z,-0.31
2023-01-29T06:04:28.344Z,-0.37
2023-01-29T06:09:30.407Z,-0.40
2023-01-29T06:14:32.917Z,-0.40
2023-01-29T06:19:36.477Z,-0.37
2023-01-29T06:24:38.550Z,-0.35
2023-01-29T06:29:40.734Z,-0.35
2023-01-29T06:34:44.190Z,-0.36
2023-01-29T06:39:46.283Z,-0.37
2023-01-29T06:44:48.602Z,-0.35
2023-01-29T06:49:51.716Z,-0.34
2023-01-29T06:54:53.443Z,-0.32
2023-01-29T06:59:55.780Z,-0.26
2023-01-29T07:04:59.300Z,-0.24
2023-01-29T07:10:01.468Z,-0.25
2023-01-29T07:15:03.520Z,-0.22
2023-01-29T07:20:08.558Z,-0.21
2023-01-29T07:25:10.646Z,-0.19
2023-01-29T07:30:13.888Z,-0.18
2023-01-29T07:35:17.403Z,-0.19
2023-01-29T07:40:19.342Z,-0.16
2023-01-29T07:45:21.754Z,-0.11
2023-01-29T07:50:26.320Z,-0.12
2023-01-29T08:00:55.553Z,-0.01
2023-01-29T08:05:59.344Z,-0.01
2023-01-29T08:11:01.942Z,0.02
2023-01-29T08:16:04.857Z,0.03
2023-01-29T08:21:08.329Z,0.06
2023-01-29T08:26:10.413Z,0.13
2023-01-29T08:31:15.981Z,0.15
2023-01-29T08:36:19.173Z,0.21
2023-01-29T08:41:21.323Z,0.26
2023-01-29T08:46:23.873Z,0.34
2023-01-29T08:51:51.202Z,0.40
2023-01-29T08:56:53.048Z,0.44
2023-01-29T09:01:55.150Z,0.54
2023-01-29T09:06:58.351Z,0.65
2023-01-29T09:12:00.465Z,0.68
2023-01-29T09:17:02.221Z,0.77
2023-01-29T09:22:05.502Z,0.88
2023-01-29T09:27:07.559Z,0.97
2023-01-29T09:32:09.704Z,1.12
2023-01-29T09:37:13.710Z,1.11
2023-01-29T09:42:22.836Z,1.17
2023-01-29T09:47:27.030Z,1.24
2023-01-29T09:52:33.762Z,1.38
2023-01-29T09:57:50.381Z,1.57
2023-01-29T10:03:10.933Z,2.08
2023-01-29T10:08:34.279Z,2.76
2023-01-29T10:13:45.063Z,2.62
2023-01-29T10:19:03.898Z,2.89
2023-01-29T10:24:22.127Z,2.92
2023-01-29T10:29:25.771Z,4.07
2023-01-29T10:34:33.769Z,4.86
2023-01-29T10:39:37.319Z,4.24
2023-01-29T10:44:50.976Z,3.66
2023-01-29T10:50:13.369Z,3.40
2023-01-29T10:55:46.663Z,3.37
2023-01-29T11:00:49.572Z,3.36
2023-01-29T11:05:58.023Z,3.23
2023-01-29T11:11:07.674Z,3.10
2023-01-29T11:16:10.012Z,3.16
2023-01-29T11:21:11.705Z,3.29
2023-01-29T11:26:20.404Z,3.46
2023-01-29T11:31:25.566Z,3.35
2023-01-29T11:36:34.747Z,3.24
2023-01-29T11:41:45.319Z,3.15
2023-01-29T11:46:48.208Z,3.21
2023-01-29T11:51:54.847Z,3.21
2023-01-29T11:56:59.100Z,3.54
2023-01-29T12:02:20.984Z,3.20
2023-01-29T12:07:23.345Z,3.25
2023-01-29T12:12:32.535Z,3.19
2023-01-29T12:17:38.925Z,3.19
2023-01-29T12:22:47.103Z,3.17
2023-01-29T12:27:59.747Z,3.35
2023-01-29T12:33:10.252Z,3.38
2023-01-29T12:38:19.593Z,3.20
2023-01-29T12:43:27.436Z,3.11
2023-01-29T12:48:33.038Z,3.16
2023-01-29T12:53:42.008Z,3.20
2023-01-29T12:58:48.482Z,3.23
2023-01-29T13:04:14.784Z,3.18
2023-01-29T13:09:21.430Z,3.16
2023-01-29T13:14:48.092Z,3.01
2023-01-29T13:19:52.631Z,3.02
2023-01-29T13:25:04.136Z,2.83
2023-01-29T13:30:24.730Z,2.67
2023-01-29T13:35:26.634Z,2.62
2023-01-29T13:40:32.350Z,2.54
2023-01-29T13:51:33.414Z,2.40
2023-01-29T13:56:58.263Z,2.41
2023-01-29T14:02:24.109Z,2.37
2023-01-29T14:07:49.345Z,2.29
2023-01-29T14:12:52.771Z,2.24
2023-01-29T14:18:00.201Z,2.32
2023-01-29T14:28:32.262Z,2.00
2023-01-29T14:33:39.154Z,2.06
2023-01-29T14:38:47.991Z,2.03
2023-01-29T14:43:49.812Z,1.76
2023-01-29T14:48:53.407Z,1.63
2023-01-29T14:54:03.243Z,1.54
2023-01-29T14:59:15.429Z,1.49
2023-01-29T15:04:23.524Z,1.48
2023-01-29T15:09:36.798Z,1.46
2023-01-29T15:14:46.312Z,1.44
2023-01-29T15:19:49.999Z,1.33
2023-01-29T15:25:07.511Z,1.30
2023-01-29T15:30:15.836Z,1.29
2023-01-29T15:35:28.264Z,1.29
2023-01-29T15:40:30.598Z,1.23
2023-01-29T15:45:34.112Z,1.22
2023-01-29T15:50:41.853Z,1.23
2023-01-29T15:55:44.744Z,1.22
2023-01-29T16:00:52.525Z,1.23
2023-01-29T16:05:56.928Z,1.22
2023-01-29T16:11:01.869Z,1.19
2023-01-29T16:16:16.410Z,1.22
2023-01-29T16:21:27.714Z,1.24
2023-01-29T16:26:33.935Z,1.24
2023-01-29T16:31:37.794Z,1.28
2023-01-29T16:42:23.549Z,1.22
2023-01-29T16:47:34.455Z,1.21
2023-01-29T16:52:37.575Z,1.21
2023-01-29T16:57:40.631Z,1.20
2023-01-29T17:02:42.792Z,1.20
2023-01-29T17:07:46.691Z,1.20
2023-01-29T17:12:54.413Z,1.21
2023-01-29T17:17:56.536Z,1.21
2023-01-29T17:23:00.220Z,1.20
2023-01-29T17:28:02.932Z,1.19
2023-01-29T17:33:13.078Z,1.17
2023-01-29T17:38:25.991Z,1.20
2023-01-29T17:43:28.635Z,1.20
2023-01-29T17:48:31.889Z,1.22
2023-01-29T17:53:50.348Z,1.25
2023-01-29T17:58:52.258Z,1.30
2023-01-29T18:03:54.467Z,1.29
2023-01-29T18:08:57.778Z,1.33
2023-01-29T18:14:02.727Z,1.34
2023-01-29T18:19:21.291Z,1.38
2023-01-29T18:24:24.966Z,1.41
2023-01-29T18:29:27.192Z,1.43
2023-01-29T18:34:30.072Z,1.44
2023-01-29T18:39:33.903Z,1.43
2023-01-29T18:44:35.905Z,1.46
2023-01-29T18:49:38.034Z,1.44
2023-01-29T18:54:42.251Z,1.43
2023-01-29T18:59:44.854Z,1.41
2023-01-29T19:04:47.398Z,1.38
2023-01-29T19:09:50.541Z,1.40
2023-01-29T19:14:52.244Z,1.44
2023-01-29T19:19:54.515Z,1.44
2023-01-29T19:24:58.188Z,1.47
2023-01-29T19:30:00.483Z,1.43
2023-01-29T19:35:03.225Z,1.46
2023-01-29T19:40:08.280Z,1.45
2023-01-29T19:45:10.777Z,1.47
2023-01-29T19:50:13.385Z,1.45
2023-01-29T19:55:17.504Z,1.45
2023-01-29T20:00:20.956Z,1.48
2023-01-29T20:05:23.114Z,1.44
2023-01-29T20:10:27.139Z,1.46
2023-01-29T20:15:29.755Z,1.46
2023-01-29T20:20:32.663Z,1.45
2023-01-29T20:25:36.293Z,1.41
2023-01-29T20:30:40.037Z,1.42
2023-01-29T20:35:42.291Z,1.38
2023-01-29T20:40:45.971Z,1.32
2023-01-29T20:45:47.899Z,1.24
2023-01-29T20:50:50.162Z,1.17
2023-01-29T20:55:53.658Z,1.15
2023-01-29T21:00:55.498Z,1.13
2023-01-29T21:05:57.673Z,1.10
2023-01-29T21:11:04.438Z,1.12
2023-01-29T21:16:07.216Z,1.08
2023-01-29T21:21:09.613Z,1.09
2023-01-29T21:26:12.732Z,1.07
2023-01-29T21:31:15.039Z,1.05
2023-01-29T21:36:16.760Z,1.06
2023-01-29T21:41:20.307Z,1.05
2023-01-29T21:46:22.552Z,1.04
2023-01-29T21:51:24.741Z,0.97
2023-01-29T21:56:28.179Z,0.99
2023-01-29T22:01:37.287Z,0.99
2023-01-29T22:06:40.722Z,0.99
2023-01-29T22:11:44.285Z,0.99
2023-01-29T22:16:46.212Z,1.02
2023-01-29T22:21:48.513Z,1.01
2023-01-29T22:26:51.658Z,1.03
2023-01-29T22:31:53.429Z,1.01
2023-01-29T22:36:55.618Z,1.02
2023-01-29T22:41:59.288Z,1.00
2023-01-29T22:47:01.873Z,1.00
2023-01-29T22:52:03.907Z,0.98
2023-01-29T22:57:08.642Z,1.00
2023-01-29T23:02:11.576Z,1.01
2023-01-29T23:07:13.350Z,1.05
2023-01-29T23:12:17.309Z,1.08
2023-01-29T23:17:19.706Z,1.07
2023-01-29T23:22:22.037Z,1.10
2023-01-29T23:27:25.509Z,1.05
2023-01-29T23:32:27.588Z,1.03
2023-01-29T23:37:29.704Z,1.06
2023-01-29T23:42:32.918Z,1.07
2023-01-29T23:47:35.035Z,1.03
2023-01-29T23:52:37.156Z,1.04
2023-01-29T23:57:40.627Z,1.03
